Virginia — WCW4062 — position and weather

sailwx.info

Track history (hours):
 
Tides and Currents Weather Stations Pressure Air Temp Water Temp Dewpoint Dewpoint Depression Visibility Wind Speed Wind Dir Waves Ship Positions

Virginia

Owner: WEEKS MARINE, INC., CRANFORD, NJ. More information available from US FCC via Universal Licensing System and Coast Guard Vessel Documentation Center.

Last reported at 2017-Jul-19 19:30 UTC. Time now 2017-Nov-22 07:30 UTC.
Position N 30°04' W 093°37'.
Warning: this ship's position is months out of date.

Length 21 m; draft 2.5 m.

Type: Towing. MMSI: 366939110.

Date/timePositionNaut miles runAvg speedWind from/ knotsBaromVisibWave heightAir tempDewpointWater temp
2017-Jul-19 19:30N 30°04' W 093°37'3 6.6
2017-Jul-19 18:59N 30°04' W 093°33'3 7.0
2017-Jul-19 18:30N 30°04' W 093°30'4 7.0
2017-Jul-19 18:00N 30°04' W 093°25'3 6.5
2017-Jul-19 17:30N 30°04' W 093°22'1 2.4
2017-Jul-19 17:00N 30°04' W 093°21'3 5.3
2017-Jul-19 16:30N 30°05' W 093°18'2 3.3
2017-Jul-19 15:58N 30°04' W 093°16'0 0.0
2017-Jul-19 15:28N 30°04' W 093°16'2 4.8
2017-Jul-19 15:00N 30°02' W 093°15'3 5.4
2017-Jul-19 14:30N 30°00' W 093°14'3 6.8
2017-Jul-19 14:00N 29°58' W 093°11'3 6.4
2017-Jul-19 13:30N 29°56' W 093°08'4 7.2
2017-Jul-19 13:00N 29°56' W 093°04'37 6.1
2017-Jul-19 06:55N 29°51' W 092°21'2 5.9
2017-Jul-19 06:31N 29°50' W 092°18'3 5.8
2017-Jul-19 06:01N 29°48' W 092°16'3 6.1
2017-Jul-19 05:31N 29°47' W 092°13'3 5.0
2017-Jul-19 05:00N 29°47' W 092°10'3 6.1
2017-Jul-19 04:31N 29°48' W 092°06'3 6.2
2017-Jul-19 04:01N 29°49' W 092°03'3 6.0
2017-Jul-19 03:31N 29°50' W 091°60'61 5.9
2017-Jul-18 17:08N 29°32' W 090°52'1 6.6
2017-Jul-18 16:58N 29°32' W 090°51'3 7.1
2017-Jul-18 16:30N 29°32' W 090°47'3 6.1
2017-Jul-18 16:00N 29°34' W 090°44'2 4.0
2017-Jul-18 15:30N 29°35' W 090°43'2 3.6
2017-Jul-18 15:00N 29°37' W 090°41'2 1.5
2017-Jul-18 13:58N 29°36' W 090°40'0 0.2
2017-Jul-18 13:30N 29°36' W 090°40'3 5.0
2017-Jul-18 12:59N 29°35' W 090°37'1 2.4
2017-Jul-18 12:30N 29°35' W 090°36'0 0.2
2017-Jul-18 11:43N 29°35' W 090°36'1 2.8
2017-Jul-18 11:30N 29°35' W 090°36'3 6.1
2017-Jul-18 11:00N 29°36' W 090°39'0 0.5
2017-Jul-18 10:29N 29°36' W 090°40'0 0.0
2017-Jul-18 09:59N 29°36' W 090°40'0 0.0
2017-Jul-18 09:29N 29°36' W 090°40'0 0.0
2017-Jul-18 08:59N 29°36' W 090°40'0 0.0
2017-Jul-18 08:29N 29°36' W 090°40'0 0.0
2017-Jul-18 07:59N 29°36' W 090°40'0 0.0
2017-Jul-18 06:47N 29°36' W 090°40'0 0.0
2017-Jul-18 06:29N 29°36' W 090°40'0 0.0
2017-Jul-18 05:53N 29°36' W 090°40'0 0.0
2017-Jul-18 05:29N 29°36' W 090°40'0 0.0
2017-Jul-18 04:34N 29°36' W 090°40'0 0.0
2017-Jul-18 04:22N 29°36' W 090°40'0 0.0
2017-Jul-18 03:52N 29°36' W 090°40'0 0.0
2017-Jul-18 03:28N 29°36' W 090°40'0 0.0
2017-Jul-18 02:52N 29°36' W 090°40'0 0.0
2017-Jul-18 01:34N 29°36' W 090°40'0 0.0
2017-Jul-18 01:13N 29°36' W 090°40'0 0.0
2017-Jul-18 00:58N 29°36' W 090°40'0 0.0
2017-Jul-18 00:28N 29°36' W 090°40'0 0.0
2017-Jul-17 23:04N 29°36' W 090°40'0 0.0
2017-Jul-17 22:58N 29°36' W 090°40'0 0.0
2017-Jul-17 22:22N 29°36' W 090°40'0 0.0
2017-Jul-17 21:58N 29°36' W 090°40'0 0.0
2017-Jul-17 21:10N 29°36' W 090°40'0 0.0
2017-Jul-17 20:58N 29°36' W 090°40'0 0.0
2017-Jul-17 20:28N 29°36' W 090°40'0 0.0
2017-Jul-17 19:58N 29°36' W 090°40'0 0.0
2017-Jul-17 19:28N 29°36' W 090°40'0 0.0
2017-Jul-17 18:58N 29°36' W 090°40'0 0.0
2017-Jul-17 17:04N 29°36' W 090°40'0 0.0
2017-Jul-17 16:34N 29°36' W 090°40'0 0.1
2017-Jul-17 16:28N 29°36' W 090°40'0 0.0
2017-Jul-17 15:46N 29°36' W 090°40'0 0.0
2017-Jul-17 14:04N 29°36' W 090°40'0 0.0
2017-Jul-17 13:58N 29°36' W 090°40'0 0.0
2017-Jul-17 13:22N 29°36' W 090°40'0 0.0
2017-Jul-17 12:58N 29°36' W 090°40'0 0.0
2017-Jul-17 12:28N 29°36' W 090°40'0 0.0
2017-Jul-17 11:58N 29°36' W 090°40'0 0.0
2017-Jul-17 10:46N 29°36' W 090°40'0 0.0
2017-Jul-17 10:28N 29°36' W 090°40'0 0.0
2017-Jul-17 09:58N 29°36' W 090°40'0 0.0
2017-Jul-17 09:22N 29°36' W 090°40'0 0.0
2017-Jul-17 08:58N 29°36' W 090°40'0 0.0
2017-Jul-17 08:28N 29°36' W 090°40'0 0.0
2017-Jul-17 07:58N 29°36' W 090°40'0 0.0
2017-Jul-17 07:28N 29°36' W 090°40'0 0.0
2017-Jul-17 06:46N 29°36' W 090°40'0 0.0
2017-Jul-17 06:22N 29°36' W 090°40'0 0.0
2017-Jul-17 05:52N 29°36' W 090°40'0 0.0
2017-Jul-17 05:16N 29°36' W 090°40'0 0.0
2017-Jul-17 04:58N 29°36' W 090°40'0 0.0
2017-Jul-17 04:28N 29°36' W 090°40'0 0.0
2017-Jul-17 03:58N 29°36' W 090°40'0 0.0
2017-Jul-17 03:28N 29°36' W 090°40'0 0.0
2017-Jul-17 02:58N 29°36' W 090°40'0 0.0
2017-Jul-17 02:22N 29°36' W 090°40'0 0.0
2017-Jul-17 01:58N 29°36' W 090°40'0 0.0
2017-Jul-17 01:28N 29°36' W 090°40'0 0.0
2017-Jul-17 00:58N 29°36' W 090°40'0 0.0
2017-Jul-17 00:28N 29°36' W 090°40'0 0.0
2017-Jul-16 23:58N 29°36' W 090°40'0 0.0
2017-Jul-16 23:10N 29°36' W 090°40'0 0.0
2017-Jul-16 22:58N 29°36' W 090°40'0 0.0
2017-Jul-16 21:40N 29°36' W 090°40'0 0.0
2017-Jul-16 21:22N 29°36' W 090°40'0 0.0
2017-Jul-16 20:52N 29°36' W 090°40'0 0.0
2017-Jul-16 20:28N 29°36' W 090°40'0 0.0
2017-Jul-16 19:45N 29°36' W 090°40'0 0.0
2017-Jul-16 19:27N 29°36' W 090°40'0 0.0
2017-Jul-16 18:57N 29°36' W 090°40'0 0.0
2017-Jul-16 18:27N 29°36' W 090°40'0 0.0
2017-Jul-16 17:57N 29°36' W 090°40'0 0.0
2017-Jul-16 17:27N 29°36' W 090°40'0 0.0
2017-Jul-16 17:00N 29°36' W 090°40'0 0.0
2017-Jul-16 16:30N 29°36' W 090°40'0 0.0
2017-Jul-16 15:57N 29°36' W 090°40'0 0.0
2017-Jul-16 15:27N 29°36' W 090°40'0 0.0
2017-Jul-16 14:57N 29°36' W 090°40'0 0.0
2017-Jul-16 14:30N 29°36' W 090°40'0 0.0
2017-Jul-16 13:57N 29°36' W 090°40'0 0.0
2017-Jul-16 13:27N 29°36' W 090°40'0 0.0
2017-Jul-16 12:57N 29°36' W 090°40'0 0.0
2017-Jul-16 12:27N 29°36' W 090°40'0 0.0
2017-Jul-16 11:57N 29°36' W 090°40'0 0.0
2017-Jul-16 11:27N 29°36' W 090°40'0 0.0
2017-Jul-16 10:57N 29°36' W 090°40'0 0.0
2017-Jul-16 10:27N 29°36' W 090°40'0 0.0
2017-Jul-16 09:57N 29°36' W 090°40'0 0.0
2017-Jul-16 09:27N 29°36' W 090°40'0 0.0
2017-Jul-16 08:57N 29°36' W 090°40'0 0.0
2017-Jul-16 08:27N 29°36' W 090°40'0 0.0
2017-Jul-16 07:57N 29°36' W 090°40'0 0.0
2017-Jul-16 07:27N 29°36' W 090°40'0 0.0
2017-Jul-16 06:57N 29°36' W 090°40'0 0.0
2017-Jul-16 06:27N 29°36' W 090°40'0 0.0
2017-Jul-16 05:57N 29°36' W 090°40'0 0.0
2017-Jul-16 05:27N 29°36' W 090°40'0 0.0
2017-Jul-16 04:57N 29°36' W 090°40'0 0.0
2017-Jul-16 04:27N 29°36' W 090°40'0 0.0
2017-Jul-16 03:57N 29°36' W 090°40'0 0.0
2017-Jul-16 03:27N 29°36' W 090°40'0 0.0
2017-Jul-16 02:57N 29°36' W 090°40'0 0.0
2017-Jul-16 02:21N 29°36' W 090°40'0 0.0
2017-Jul-16 01:57N 29°36' W 090°40'0 0.0
2017-Jul-16 01:27N 29°36' W 090°40'0 0.0
2017-Jul-16 00:57N 29°36' W 090°40'0 0.0
2017-Jul-16 00:27N 29°36' W 090°40'0 0.0
2017-Jul-16 00:00N 29°36' W 090°40'0 0.0
2017-Jul-15 23:27N 29°36' W 090°40'0 0.0
2017-Jul-15 23:00N 29°36' W 090°40'0 0.0
2017-Jul-15 22:30N 29°36' W 090°40'0 0.0
2017-Jul-15 21:57N 29°36' W 090°40'0 0.0
2017-Jul-15 21:30N 29°36' W 090°40'0 0.0
2017-Jul-15 21:00N 29°36' W 090°40'0 0.0
2017-Jul-15 20:30N 29°36' W 090°40'0 0.0
2017-Jul-15 20:00N 29°36' W 090°40'0 0.0
2017-Jul-15 19:27N 29°36' W 090°40'0 0.0
2017-Jul-15 19:00N 29°36' W 090°40'0 0.0
2017-Jul-15 18:27N 29°36' W 090°40'0 0.0
2017-Jul-15 18:00N 29°36' W 090°40'0 0.0
2017-Jul-15 17:30N 29°36' W 090°40'0 0.0
2017-Jul-15 16:57N 29°36' W 090°40'0 0.0
2017-Jul-15 16:27N 29°36' W 090°40'0 0.0
2017-Jul-15 15:57N 29°36' W 090°40'0 0.0
2017-Jul-15 15:27N 29°36' W 090°40'0 0.0
2017-Jul-15 14:57N 29°36' W 090°40'0 0.0
2017-Jul-15 13:57N 29°36' W 090°40'0 0.0
2017-Jul-15 13:27N 29°36' W 090°40'0 0.0
2017-Jul-15 13:00N 29°36' W 090°40'0 0.0
2017-Jul-15 12:27N 29°36' W 090°40'0 0.0
2017-Jul-15 11:57N 29°36' W 090°40'0 0.0
2017-Jul-15 11:27N 29°36' W 090°40'0 0.0
2017-Jul-15 10:57N 29°36' W 090°40'0 0.0
2017-Jul-15 10:26N 29°36' W 090°40'0 0.0
2017-Jul-15 09:56N 29°36' W 090°40'0 0.0
2017-Jul-15 09:26N 29°36' W 090°40'0 0.0
2017-Jul-15 08:56N 29°36' W 090°40'0 0.0
2017-Jul-15 08:26N 29°36' W 090°40'0 0.0
2017-Jul-15 07:56N 29°36' W 090°40'0 0.0
2017-Jul-15 07:26N 29°36' W 090°40'0 0.0
2017-Jul-15 06:56N 29°36' W 090°40'0 0.0
2017-Jul-15 06:26N 29°36' W 090°40'0 0.0
2017-Jul-15 05:56N 29°36' W 090°40'0 0.0
2017-Jul-15 05:29N 29°36' W 090°40'0 0.0
2017-Jul-15 04:56N 29°36' W 090°40'0 0.0
2017-Jul-15 04:26N 29°36' W 090°40'0 0.0
2017-Jul-15 03:56N 29°36' W 090°40'0 0.0
2017-Jul-15 03:26N 29°36' W 090°40'0 0.0
2017-Jul-15 02:56N 29°36' W 090°40'0 0.0
2017-Jul-15 02:26N 29°36' W 090°40'0 0.0
2017-Jul-15 01:56N 29°36' W 090°40'0 0.0
2017-Jul-15 01:29N 29°36' W 090°40'0 0.0
2017-Jul-15 00:59N 29°36' W 090°40'0 0.0
2017-Jul-15 00:29N 29°36' W 090°40'0 0.0
2017-Jul-14 23:56N 29°36' W 090°40'0 0.0
2017-Jul-14 23:26N 29°36' W 090°40'0 0.0
2017-Jul-14 22:59N 29°36' W 090°40'0 0.0
2017-Jul-14 22:29N 29°36' W 090°40'0 0.0
2017-Jul-14 21:59N 29°36' W 090°40'0 0.0
2017-Jul-14 21:26N 29°36' W 090°40'0 0.0
2017-Jul-14 20:56N 29°36' W 090°40'0 0.0
2017-Jul-14 20:29N 29°36' W 090°40'0 0.0
2017-Jul-14 19:59N 29°36' W 090°40'0 0.0
2017-Jul-14 19:26N 29°36' W 090°40'0 0.0
2017-Jul-14 18:56N 29°36' W 090°40'0 0.0
2017-Jul-14 18:26N 29°36' W 090°40'0 0.3
2017-Jul-14 17:58N 29°36' W 090°40'0 0.0
2017-Jul-14 17:25N 29°36' W 090°40'0 0.0
2017-Jul-14 03:17N 29°36' W 090°40'0 0.3
2017-Jul-14 02:56N 29°36' W 090°40'0 0.0
2017-Jul-14 02:26N 29°36' W 090°40'0 0.0
2017-Jul-14 01:56N 29°36' W 090°40'0 0.0
2017-Jul-14 01:26N 29°36' W 090°40'0 0.0
2017-Jul-14 00:56N 29°36' W 090°40'0 0.0
2017-Jul-14 00:26N 29°36' W 090°40'0 0.0
2017-Jul-13 23:50N 29°36' W 090°40'0 0.0
2017-Jul-13 23:26N 29°36' W 090°40'0 0.0
2017-Jul-13 22:56N 29°36' W 090°40'0 0.0
2017-Jul-13 22:26N 29°36' W 090°40'0 0.0
2017-Jul-13 21:56N 29°36' W 090°40'0 0.0
2017-Jul-13 21:26N 29°36' W 090°40'0 0.0
2017-Jul-13 20:56N 29°36' W 090°40'0 0.0
2017-Jul-13 18:55N 29°36' W 090°40'0 0.0
2017-Jul-13 18:25N 29°36' W 090°40'0 0.0
2017-Jul-13 17:55N 29°36' W 090°40'0 0.0
2017-Jul-13 17:25N 29°36' W 090°40'0 0.0
2017-Jul-13 16:55N 29°36' W 090°40'0 0.0
2017-Jul-13 16:25N 29°36' W 090°40'0 0.0
2017-Jul-13 15:37N 29°36' W 090°40'0 0.0
2017-Jul-13 15:25N 29°36' W 090°40'0 0.0
2017-Jul-13 14:49N 29°36' W 090°40'0 0.0
2017-Jul-13 14:19N 29°36' W 090°40'0 0.0
2017-Jul-13 13:58N 29°36' W 090°40'0 0.0
2017-Jul-13 13:28N 29°36' W 090°40'0 0.0
2017-Jul-13 12:55N 29°36' W 090°40'0 0.0
2017-Jul-13 12:22N 29°36' W 090°40'0 0.0
2017-Jul-13 11:55N 29°36' W 090°40'0 0.0
2017-Jul-13 11:28N 29°36' W 090°40'0 0.0
2017-Jul-13 10:58N 29°36' W 090°40'0 0.0
2017-Jul-13 10:28N 29°36' W 090°40'0 0.0
2017-Jul-13 09:58N 29°36' W 090°40'0 0.0
2017-Jul-13 09:28N 29°36' W 090°40'0 0.0
2017-Jul-13 08:58N 29°36' W 090°40'0 0.0
2017-Jul-13 08:22N 29°36' W 090°40'0 0.0
2017-Jul-13 07:46N 29°36' W 090°40'0 0.0
2017-Jul-13 07:28N 29°36' W 090°40'0 0.0
2017-Jul-13 06:55N 29°36' W 090°40'0 0.0
2017-Jul-13 06:28N 29°36' W 090°40'0 0.0
2017-Jul-13 05:43N 29°36' W 090°40'0 0.0
2017-Jul-13 05:25N 29°36' W 090°40'0 0.0
2017-Jul-13 04:55N 29°36' W 090°40'0 0.0
2017-Jul-13 04:19N 29°36' W 090°40'0 0.0
2017-Jul-13 03:52N 29°36' W 090°40'0 0.0
2017-Jul-13 03:28N 29°36' W 090°40'0 0.0
2017-Jul-13 02:43N 29°36' W 090°40'0 0.0
2017-Jul-13 02:19N 29°36' W 090°40'0 0.0
2017-Jul-13 00:43N 29°36' W 090°40'0 0.0
2017-Jul-12 23:01N 29°36' W 090°40'0 0.0
2017-Jul-12 22:49N 29°36' W 090°40'0 0.0
2017-Jul-12 22:19N 29°36' W 090°40'0 0.0
2017-Jul-12 21:13N 29°36' W 090°40'0 0.0
2017-Jul-12 20:52N 29°36' W 090°40'0 0.0
2017-Jul-12 20:25N 29°36' W 090°40'0 0.0
2017-Jul-12 19:49N 29°36' W 090°40'0 0.0
2017-Jul-12 19:19N 29°36' W 090°40'0 0.0
2017-Jul-12 18:49N 29°36' W 090°40'0 0.0
2017-Jul-12 18:25N 29°36' W 090°40'0 0.0
2017-Jul-12 17:07N 29°36' W 090°40'0 0.0
2017-Jul-12 16:55N 29°36' W 090°40'0 0.0
2017-Jul-12 16:25N 29°36' W 090°40'0 0.0
2017-Jul-12 15:43N 29°36' W 090°40'0 0.0
2017-Jul-12 15:28N 29°36' W 090°40'0 0.0
2017-Jul-12 14:55N 29°36' W 090°40'0 0.0
2017-Jul-12 13:55N 29°36' W 090°40'0 0.0
2017-Jul-12 12:45N 29°36' W 090°40'0 0.0
2017-Jul-12 12:03N 29°36' W 090°40'0 0.0
2017-Jul-12 11:57N 29°36' W 090°40'0 0.0
2017-Jul-12 11:27N 29°36' W 090°40'0 0.0
2017-Jul-12 10:57N 29°36' W 090°40'0 0.0
2017-Jul-12 10:21N 29°36' W 090°40'0 0.0
2017-Jul-12 09:57N 29°36' W 090°40'0 0.0
2017-Jul-12 08:57N 29°36' W 090°40'0 0.0
2017-Jul-12 08:21N 29°36' W 090°40'0 0.0
2017-Jul-12 07:51N 29°36' W 090°40'0 0.0
2017-Jul-12 07:09N 29°36' W 090°40'0 0.0
2017-Jul-12 06:57N 29°36' W 090°40'0 0.0
2017-Jul-12 06:21N 29°36' W 090°40'0 0.0
2017-Jul-12 05:51N 29°36' W 090°40'0 0.0
2017-Jul-12 05:27N 29°36' W 090°40'0 0.0
2017-Jul-12 04:57N 29°36' W 090°40'0 0.0
2017-Jul-12 04:27N 29°36' W 090°40'0 0.0
2017-Jul-12 03:38N 29°36' W 090°40'0 0.0
2017-Jul-12 03:08N 29°36' W 090°40'0 0.0
2017-Jul-12 02:56N 29°36' W 090°40'0 0.0
2017-Jul-12 02:20N 29°36' W 090°40'0 0.0
2017-Jul-12 01:56N 29°36' W 090°40'0 0.0
2017-Jul-12 01:26N 29°36' W 090°40'0 0.0
2017-Jul-12 00:56N 29°36' W 090°40'0 0.0
2017-Jul-12 00:26N 29°36' W 090°40'0 0.0
2017-Jul-11 23:56N 29°36' W 090°40'0 0.0
2017-Jul-11 23:20N 29°36' W 090°40'0 0.0
2017-Jul-11 22:38N 29°36' W 090°40'0 0.0
2017-Jul-11 22:26N 29°36' W 090°40'0 0.0
2017-Jul-11 21:56N 29°36' W 090°40'0 0.0
2017-Jul-11 21:08N 29°36' W 090°40'0 0.0
2017-Jul-11 20:44N 29°36' W 090°40'0 0.0
2017-Jul-11 17:14N 29°36' W 090°40'0 0.0
2017-Jul-11 16:56N 29°36' W 090°40'0 0.0
2017-Jul-11 16:29N 29°36' W 090°40'0 0.0
2017-Jul-11 15:56N 29°36' W 090°40'0 0.0
2017-Jul-11 15:26N 29°36' W 090°40'0 0.0
2017-Jul-11 14:59N 29°36' W 090°40'0 0.0
2017-Jul-11 14:29N 29°36' W 090°40'0 0.0
2017-Jul-11 13:59N 29°36' W 090°40'0 0.0
2017-Jul-11 13:14N 29°36' W 090°40'0 0.0
2017-Jul-11 12:56N 29°36' W 090°40'0 0.0
2017-Jul-11 12:20N 29°36' W 090°40'0 0.0
2017-Jul-11 11:08N 29°36' W 090°40'0 0.0
2017-Jul-11 10:56N 29°36' W 090°40'0 0.0
2017-Jul-11 10:20N 29°36' W 090°40'0 0.0
2017-Jul-11 09:56N 29°36' W 090°40'0 0.0
2017-Jul-11 09:26N 29°36' W 090°40'0 0.0
2017-Jul-11 08:44N 29°36' W 090°40'0 0.0
2017-Jul-11 08:20N 29°36' W 090°40'0 0.0
2017-Jul-11 07:56N 29°36' W 090°40'0 0.0
2017-Jul-11 07:26N 29°36' W 090°40'0 0.0
2017-Jul-11 06:50N 29°36' W 090°40'0 0.0
2017-Jul-11 06:20N 29°36' W 090°40'0 0.0
2017-Jul-11 05:56N 29°36' W 090°40'0 0.0
2017-Jul-11 05:26N 29°36' W 090°40'0 0.0
2017-Jul-11 04:56N 29°36' W 090°40'0 0.0
2017-Jul-11 04:26N 29°36' W 090°40'0 0.0
2017-Jul-11 03:56N 29°36' W 090°40'0 0.0
2017-Jul-11 03:26N 29°36' W 090°40'0 0.0
2017-Jul-11 02:50N 29°36' W 090°40'0 0.0
2017-Jul-11 02:02N 29°36' W 090°40'0 0.1
2017-Jul-11 01:56N 29°36' W 090°40'0 0.0
2017-Jul-11 01:26N 29°36' W 090°40'0 0.0
2017-Jul-11 00:56N 29°36' W 090°40'0 0.0
2017-Jul-11 00:26N 29°36' W 090°40'0 0.0
2017-Jul-10 23:56N 29°36' W 090°40'0 0.0
2017-Jul-10 23:26N 29°36' W 090°40'0 0.0
2017-Jul-10 22:56N 29°36' W 090°40'0 0.0
2017-Jul-10 22:26N 29°36' W 090°40'0 0.0
2017-Jul-10 21:38N 29°36' W 090°40'0 0.0
2017-Jul-10 21:26N 29°36' W 090°40'0 0.0
2017-Jul-10 20:50N 29°36' W 090°40'0 0.0
2017-Jul-10 20:26N 29°36' W 090°40'0 0.0
2017-Jul-10 19:50N 29°36' W 090°40'0 0.0
2017-Jul-10 19:25N 29°36' W 090°40'0 0.0
2017-Jul-10 18:55N 29°36' W 090°40'0 0.0
2017-Jul-10 18:25N 29°36' W 090°40'0 0.0
2017-Jul-10 17:55N 29°36' W 090°40'0 0.0
2017-Jul-10 17:25N 29°36' W 090°40'0 0.0
2017-Jul-10 16:55N 29°36' W 090°40'0 0.0
2017-Jul-10 16:25N 29°36' W 090°40'0 0.0
2017-Jul-10 15:49N 29°36' W 090°40'0 0.0
2017-Jul-10 15:25N 29°36' W 090°40'0 0.0
2017-Jul-10 14:55N 29°36' W 090°40'0 0.0
2017-Jul-10 14:25N 29°36' W 090°40'0 0.0
2017-Jul-10 13:49N 29°36' W 090°40'0 0.0
2017-Jul-10 13:19N 29°36' W 090°40'0 0.0
2017-Jul-10 12:49N 29°36' W 090°40'0 0.0
2017-Jul-10 11:19N 29°36' W 090°40'0 0.0
2017-Jul-10 10:37N 29°36' W 090°40'0 0.0
2017-Jul-10 10:25N 29°36' W 090°40'0 0.0
2017-Jul-10 09:01N 29°36' W 090°40'0 0.1
2017-Jul-10 08:55N 29°36' W 090°40'0 0.0
2017-Jul-10 08:25N 29°36' W 090°40'0 0.0
2017-Jul-10 07:43N 29°36' W 090°40'0 0.0
2017-Jul-10 07:13N 29°36' W 090°40'0 0.0
2017-Jul-10 05:19N 29°36' W 090°40'0 0.0
2017-Jul-10 04:07N 29°36' W 090°40'0 0.0
2017-Jul-10 03:43N 29°36' W 090°40'0 0.0
2017-Jul-10 02:49N 29°36' W 090°40'0 0.0
2017-Jul-10 02:01N 29°36' W 090°40'0 0.0
2017-Jul-10 00:43N 29°36' W 090°40'0 0.0
2017-Jul-10 00:13N 29°36' W 090°40'0 0.0
2017-Jul-09 23:01N 29°36' W 090°40'0 0.1
2017-Jul-09 22:55N 29°36' W 090°40'0 0.0
2017-Jul-09 22:19N 29°36' W 090°40'0 0.0
2017-Jul-09 21:55N 29°36' W 090°40'0 0.0
2017-Jul-09 21:25N 29°36' W 090°40'0 0.0
2017-Jul-09 20:43N 29°36' W 090°40'0 0.0
2017-Jul-09 20:19N 29°36' W 090°40'0 0.0
2017-Jul-09 19:55N 29°36' W 090°40'  
Track history (hours):
 
Tides and Currents Weather Stations Pressure Air Temp Water Temp Dewpoint Dewpoint Depression Visibility Wind Speed Wind Dir Waves Ship Positions

Virginia

Owner: WEEKS MARINE, INC., CRANFORD, NJ. More information available from US FCC via Universal Licensing System and Coast Guard Vessel Documentation Center.

Last reported at 2017-Jul-19 19:30 UTC. Time now 2017-Nov-22 07:30 UTC.
Position N 30°04' W 093°37'.
Warning: this ship's position is months out of date.

Length 21 m; draft 2.5 m.

Type: Towing. MMSI: 366939110.

Date/timePositionNaut miles runAvg speedWind from/ knotsBaromVisibWave heightAir tempDewpointWater temp
2017-Jul-19 19:30N 30°04' W 093°37'3 6.6
2017-Jul-19 18:59N 30°04' W 093°33'3 7.0
2017-Jul-19 18:30N 30°04' W 093°30'4 7.0
2017-Jul-19 18:00N 30°04' W 093°25'3 6.5
2017-Jul-19 17:30N 30°04' W 093°22'1 2.4
2017-Jul-19 17:00N 30°04' W 093°21'3 5.3
2017-Jul-19 16:30N 30°05' W 093°18'2 3.3
2017-Jul-19 15:58N 30°04' W 093°16'0 0.0
2017-Jul-19 15:28N 30°04' W 093°16'2 4.8
2017-Jul-19 15:00N 30°02' W 093°15'3 5.4
2017-Jul-19 14:30N 30°00' W 093°14'3 6.8
2017-Jul-19 14:00N 29°58' W 093°11'3 6.4
2017-Jul-19 13:30N 29°56' W 093°08'4 7.2
2017-Jul-19 13:00N 29°56' W 093°04'37 6.1
2017-Jul-19 06:55N 29°51' W 092°21'2 5.9
2017-Jul-19 06:31N 29°50' W 092°18'3 5.8
2017-Jul-19 06:01N 29°48' W 092°16'3 6.1
2017-Jul-19 05:31N 29°47' W 092°13'3 5.0
2017-Jul-19 05:00N 29°47' W 092°10'3 6.1
2017-Jul-19 04:31N 29°48' W 092°06'3 6.2
2017-Jul-19 04:01N 29°49' W 092°03'3 6.0
2017-Jul-19 03:31N 29°50' W 091°60'61 5.9
2017-Jul-18 17:08N 29°32' W 090°52'1 6.6
2017-Jul-18 16:58N 29°32' W 090°51'3 7.1
2017-Jul-18 16:30N 29°32' W 090°47'3 6.1
2017-Jul-18 16:00N 29°34' W 090°44'2 4.0
2017-Jul-18 15:30N 29°35' W 090°43'2 3.6
2017-Jul-18 15:00N 29°37' W 090°41'2 1.5
2017-Jul-18 13:58N 29°36' W 090°40'0 0.2
2017-Jul-18 13:30N 29°36' W 090°40'3 5.0
2017-Jul-18 12:59N 29°35' W 090°37'1 2.4
2017-Jul-18 12:30N 29°35' W 090°36'0 0.2
2017-Jul-18 11:43N 29°35' W 090°36'1 2.8
2017-Jul-18 11:30N 29°35' W 090°36'3 6.1
2017-Jul-18 11:00N 29°36' W 090°39'0 0.5
2017-Jul-18 10:29N 29°36' W 090°40'0 0.0
2017-Jul-18 09:59N 29°36' W 090°40'0 0.0
2017-Jul-18 09:29N 29°36' W 090°40'0 0.0
2017-Jul-18 08:59N 29°36' W 090°40'0 0.0
2017-Jul-18 08:29N 29°36' W 090°40'0 0.0
2017-Jul-18 07:59N 29°36' W 090°40'0 0.0
2017-Jul-18 06:47N 29°36' W 090°40'0 0.0
2017-Jul-18 06:29N 29°36' W 090°40'0 0.0
2017-Jul-18 05:53N 29°36' W 090°40'0 0.0
2017-Jul-18 05:29N 29°36' W 090°40'0 0.0
2017-Jul-18 04:34N 29°36' W 090°40'0 0.0
2017-Jul-18 04:22N 29°36' W 090°40'0 0.0
2017-Jul-18 03:52N 29°36' W 090°40'0 0.0
2017-Jul-18 03:28N 29°36' W 090°40'0 0.0
2017-Jul-18 02:52N 29°36' W 090°40'0 0.0
2017-Jul-18 01:34N 29°36' W 090°40'0 0.0
2017-Jul-18 01:13N 29°36' W 090°40'0 0.0
2017-Jul-18 00:58N 29°36' W 090°40'0 0.0
2017-Jul-18 00:28N 29°36' W 090°40'0 0.0
2017-Jul-17 23:04N 29°36' W 090°40'0 0.0
2017-Jul-17 22:58N 29°36' W 090°40'0 0.0
2017-Jul-17 22:22N 29°36' W 090°40'0 0.0
2017-Jul-17 21:58N 29°36' W 090°40'0 0.0
2017-Jul-17 21:10N 29°36' W 090°40'0 0.0
2017-Jul-17 20:58N 29°36' W 090°40'0 0.0
2017-Jul-17 20:28N 29°36' W 090°40'0 0.0
2017-Jul-17 19:58N 29°36' W 090°40'0 0.0
2017-Jul-17 19:28N 29°36' W 090°40'0 0.0
2017-Jul-17 18:58N 29°36' W 090°40'0 0.0
2017-Jul-17 17:04N 29°36' W 090°40'0 0.0
2017-Jul-17 16:34N 29°36' W 090°40'0 0.1
2017-Jul-17 16:28N 29°36' W 090°40'0 0.0
2017-Jul-17 15:46N 29°36' W 090°40'0 0.0
2017-Jul-17 14:04N 29°36' W 090°40'0 0.0
2017-Jul-17 13:58N 29°36' W 090°40'0 0.0
2017-Jul-17 13:22N 29°36' W 090°40'0 0.0
2017-Jul-17 12:58N 29°36' W 090°40'0 0.0
2017-Jul-17 12:28N 29°36' W 090°40'0 0.0
2017-Jul-17 11:58N 29°36' W 090°40'0 0.0
2017-Jul-17 10:46N 29°36' W 090°40'0 0.0
2017-Jul-17 10:28N 29°36' W 090°40'0 0.0
2017-Jul-17 09:58N 29°36' W 090°40'0 0.0
2017-Jul-17 09:22N 29°36' W 090°40'0 0.0
2017-Jul-17 08:58N 29°36' W 090°40'0 0.0
2017-Jul-17 08:28N 29°36' W 090°40'0 0.0
2017-Jul-17 07:58N 29°36' W 090°40'0 0.0
2017-Jul-17 07:28N 29°36' W 090°40'0 0.0
2017-Jul-17 06:46N 29°36' W 090°40'0 0.0
2017-Jul-17 06:22N 29°36' W 090°40'0 0.0
2017-Jul-17 05:52N 29°36' W 090°40'0 0.0
2017-Jul-17 05:16N 29°36' W 090°40'0 0.0
2017-Jul-17 04:58N 29°36' W 090°40'0 0.0
2017-Jul-17 04:28N 29°36' W 090°40'0 0.0
2017-Jul-17 03:58N 29°36' W 090°40'0 0.0
2017-Jul-17 03:28N 29°36' W 090°40'0 0.0
2017-Jul-17 02:58N 29°36' W 090°40'0 0.0
2017-Jul-17 02:22N 29°36' W 090°40'0 0.0
2017-Jul-17 01:58N 29°36' W 090°40'0 0.0
2017-Jul-17 01:28N 29°36' W 090°40'0 0.0
2017-Jul-17 00:58N 29°36' W 090°40'0 0.0
2017-Jul-17 00:28N 29°36' W 090°40'0 0.0
2017-Jul-16 23:58N 29°36' W 090°40'0 0.0
2017-Jul-16 23:10N 29°36' W 090°40'0 0.0
2017-Jul-16 22:58N 29°36' W 090°40'0 0.0
2017-Jul-16 21:40N 29°36' W 090°40'0 0.0
2017-Jul-16 21:22N 29°36' W 090°40'0 0.0
2017-Jul-16 20:52N 29°36' W 090°40'0 0.0
2017-Jul-16 20:28N 29°36' W 090°40'0 0.0
2017-Jul-16 19:45N 29°36' W 090°40'0 0.0
2017-Jul-16 19:27N 29°36' W 090°40'0 0.0
2017-Jul-16 18:57N 29°36' W 090°40'0 0.0
2017-Jul-16 18:27N 29°36' W 090°40'0 0.0
2017-Jul-16 17:57N 29°36' W 090°40'0 0.0
2017-Jul-16 17:27N 29°36' W 090°40'0 0.0
2017-Jul-16 17:00N 29°36' W 090°40'0 0.0
2017-Jul-16 16:30N 29°36' W 090°40'0 0.0
2017-Jul-16 15:57N 29°36' W 090°40'0 0.0
2017-Jul-16 15:27N 29°36' W 090°40'0 0.0
2017-Jul-16 14:57N 29°36' W 090°40'0 0.0
2017-Jul-16 14:30N 29°36' W 090°40'0 0.0
2017-Jul-16 13:57N 29°36' W 090°40'0 0.0
2017-Jul-16 13:27N 29°36' W 090°40'0 0.0
2017-Jul-16 12:57N 29°36' W 090°40'0 0.0
2017-Jul-16 12:27N 29°36' W 090°40'0 0.0
2017-Jul-16 11:57N 29°36' W 090°40'0 0.0
2017-Jul-16 11:27N 29°36' W 090°40'0 0.0
2017-Jul-16 10:57N 29°36' W 090°40'0 0.0
2017-Jul-16 10:27N 29°36' W 090°40'0 0.0
2017-Jul-16 09:57N 29°36' W 090°40'0 0.0
2017-Jul-16 09:27N 29°36' W 090°40'0 0.0
2017-Jul-16 08:57N 29°36' W 090°40'0 0.0
2017-Jul-16 08:27N 29°36' W 090°40'0 0.0
2017-Jul-16 07:57N 29°36' W 090°40'0 0.0
2017-Jul-16 07:27N 29°36' W 090°40'0 0.0
2017-Jul-16 06:57N 29°36' W 090°40'0 0.0
2017-Jul-16 06:27N 29°36' W 090°40'0 0.0
2017-Jul-16 05:57N 29°36' W 090°40'0 0.0
2017-Jul-16 05:27N 29°36' W 090°40'0 0.0
2017-Jul-16 04:57N 29°36' W 090°40'0 0.0
2017-Jul-16 04:27N 29°36' W 090°40'0 0.0
2017-Jul-16 03:57N 29°36' W 090°40'0 0.0
2017-Jul-16 03:27N 29°36' W 090°40'0 0.0
2017-Jul-16 02:57N 29°36' W 090°40'0 0.0
2017-Jul-16 02:21N 29°36' W 090°40'0 0.0
2017-Jul-16 01:57N 29°36' W 090°40'0 0.0
2017-Jul-16 01:27N 29°36' W 090°40'0 0.0
2017-Jul-16 00:57N 29°36' W 090°40'0 0.0
2017-Jul-16 00:27N 29°36' W 090°40'0 0.0
2017-Jul-16 00:00N 29°36' W 090°40'0 0.0
2017-Jul-15 23:27N 29°36' W 090°40'0 0.0
2017-Jul-15 23:00N 29°36' W 090°40'0 0.0
2017-Jul-15 22:30N 29°36' W 090°40'0 0.0
2017-Jul-15 21:57N 29°36' W 090°40'0 0.0
2017-Jul-15 21:30N 29°36' W 090°40'0 0.0
2017-Jul-15 21:00N 29°36' W 090°40'0 0.0
2017-Jul-15 20:30N 29°36' W 090°40'0 0.0
2017-Jul-15 20:00N 29°36' W 090°40'0 0.0
2017-Jul-15 19:27N 29°36' W 090°40'0 0.0
2017-Jul-15 19:00N 29°36' W 090°40'0 0.0
2017-Jul-15 18:27N 29°36' W 090°40'0 0.0
2017-Jul-15 18:00N 29°36' W 090°40'0 0.0
2017-Jul-15 17:30N 29°36' W 090°40'0 0.0
2017-Jul-15 16:57N 29°36' W 090°40'0 0.0
2017-Jul-15 16:27N 29°36' W 090°40'0 0.0
2017-Jul-15 15:57N 29°36' W 090°40'0 0.0
2017-Jul-15 15:27N 29°36' W 090°40'0 0.0
2017-Jul-15 14:57N 29°36' W 090°40'0 0.0
2017-Jul-15 13:57N 29°36' W 090°40'0 0.0
2017-Jul-15 13:27N 29°36' W 090°40'0 0.0
2017-Jul-15 13:00N 29°36' W 090°40'0 0.0
2017-Jul-15 12:27N 29°36' W 090°40'0 0.0
2017-Jul-15 11:57N 29°36' W 090°40'0 0.0
2017-Jul-15 11:27N 29°36' W 090°40'0 0.0
2017-Jul-15 10:57N 29°36' W 090°40'0 0.0
2017-Jul-15 10:26N 29°36' W 090°40'0 0.0
2017-Jul-15 09:56N 29°36' W 090°40'0 0.0
2017-Jul-15 09:26N 29°36' W 090°40'0 0.0
2017-Jul-15 08:56N 29°36' W 090°40'0 0.0
2017-Jul-15 08:26N 29°36' W 090°40'0 0.0
2017-Jul-15 07:56N 29°36' W 090°40'0 0.0
2017-Jul-15 07:26N 29°36' W 090°40'0 0.0
2017-Jul-15 06:56N 29°36' W 090°40'0 0.0
2017-Jul-15 06:26N 29°36' W 090°40'0 0.0
2017-Jul-15 05:56N 29°36' W 090°40'0 0.0
2017-Jul-15 05:29N 29°36' W 090°40'0 0.0
2017-Jul-15 04:56N 29°36' W 090°40'0 0.0
2017-Jul-15 04:26N 29°36' W 090°40'0 0.0
2017-Jul-15 03:56N 29°36' W 090°40'0 0.0
2017-Jul-15 03:26N 29°36' W 090°40'0 0.0
2017-Jul-15 02:56N 29°36' W 090°40'0 0.0
2017-Jul-15 02:26N 29°36' W 090°40'0 0.0
2017-Jul-15 01:56N 29°36' W 090°40'0 0.0
2017-Jul-15 01:29N 29°36' W 090°40'0 0.0
2017-Jul-15 00:59N 29°36' W 090°40'0 0.0
2017-Jul-15 00:29N 29°36' W 090°40'0 0.0
2017-Jul-14 23:56N 29°36' W 090°40'0 0.0
2017-Jul-14 23:26N 29°36' W 090°40'0 0.0
2017-Jul-14 22:59N 29°36' W 090°40'0 0.0
2017-Jul-14 22:29N 29°36' W 090°40'0 0.0
2017-Jul-14 21:59N 29°36' W 090°40'0 0.0
2017-Jul-14 21:26N 29°36' W 090°40'0 0.0
2017-Jul-14 20:56N 29°36' W 090°40'0 0.0
2017-Jul-14 20:29N 29°36' W 090°40'0 0.0
2017-Jul-14 19:59N 29°36' W 090°40'0 0.0
2017-Jul-14 19:26N 29°36' W 090°40'0 0.0
2017-Jul-14 18:56N 29°36' W 090°40'0 0.0
2017-Jul-14 18:26N 29°36' W 090°40'0 0.3
2017-Jul-14 17:58N 29°36' W 090°40'0 0.0
2017-Jul-14 17:25N 29°36' W 090°40'0 0.0
2017-Jul-14 03:17N 29°36' W 090°40'0 0.3
2017-Jul-14 02:56N 29°36' W 090°40'0 0.0
2017-Jul-14 02:26N 29°36' W 090°40'0 0.0
2017-Jul-14 01:56N 29°36' W 090°40'0 0.0
2017-Jul-14 01:26N 29°36' W 090°40'0 0.0
2017-Jul-14 00:56N 29°36' W 090°40'0 0.0
2017-Jul-14 00:26N 29°36' W 090°40'0 0.0
2017-Jul-13 23:50N 29°36' W 090°40'0 0.0
2017-Jul-13 23:26N 29°36' W 090°40'0 0.0
2017-Jul-13 22:56N 29°36' W 090°40'0 0.0
2017-Jul-13 22:26N 29°36' W 090°40'0 0.0
2017-Jul-13 21:56N 29°36' W 090°40'0 0.0
2017-Jul-13 21:26N 29°36' W 090°40'0 0.0
2017-Jul-13 20:56N 29°36' W 090°40'0 0.0
2017-Jul-13 18:55N 29°36' W 090°40'0 0.0
2017-Jul-13 18:25N 29°36' W 090°40'0 0.0
2017-Jul-13 17:55N 29°36' W 090°40'0 0.0
2017-Jul-13 17:25N 29°36' W 090°40'0 0.0
2017-Jul-13 16:55N 29°36' W 090°40'0 0.0
2017-Jul-13 16:25N 29°36' W 090°40'0 0.0
2017-Jul-13 15:37N 29°36' W 090°40'0 0.0
2017-Jul-13 15:25N 29°36' W 090°40'0 0.0
2017-Jul-13 14:49N 29°36' W 090°40'0 0.0
2017-Jul-13 14:19N 29°36' W 090°40'0 0.0
2017-Jul-13 13:58N 29°36' W 090°40'0 0.0
2017-Jul-13 13:28N 29°36' W 090°40'0 0.0
2017-Jul-13 12:55N 29°36' W 090°40'0 0.0
2017-Jul-13 12:22N 29°36' W 090°40'0 0.0
2017-Jul-13 11:55N 29°36' W 090°40'0 0.0
2017-Jul-13 11:28N 29°36' W 090°40'0 0.0
2017-Jul-13 10:58N 29°36' W 090°40'0 0.0
2017-Jul-13 10:28N 29°36' W 090°40'0 0.0
2017-Jul-13 09:58N 29°36' W 090°40'0 0.0
2017-Jul-13 09:28N 29°36' W 090°40'0 0.0
2017-Jul-13 08:58N 29°36' W 090°40'0 0.0
2017-Jul-13 08:22N 29°36' W 090°40'0 0.0
2017-Jul-13 07:46N 29°36' W 090°40'0 0.0
2017-Jul-13 07:28N 29°36' W 090°40'0 0.0
2017-Jul-13 06:55N 29°36' W 090°40'0 0.0
2017-Jul-13 06:28N 29°36' W 090°40'0 0.0
2017-Jul-13 05:43N 29°36' W 090°40'0 0.0
2017-Jul-13 05:25N 29°36' W 090°40'0 0.0
2017-Jul-13 04:55N 29°36' W 090°40'0 0.0
2017-Jul-13 04:19N 29°36' W 090°40'0 0.0
2017-Jul-13 03:52N 29°36' W 090°40'0 0.0
2017-Jul-13 03:28N 29°36' W 090°40'0 0.0
2017-Jul-13 02:43N 29°36' W 090°40'0 0.0
2017-Jul-13 02:19N 29°36' W 090°40'0 0.0
2017-Jul-13 00:43N 29°36' W 090°40'0 0.0
2017-Jul-12 23:01N 29°36' W 090°40'0 0.0
2017-Jul-12 22:49N 29°36' W 090°40'0 0.0
2017-Jul-12 22:19N 29°36' W 090°40'0 0.0
2017-Jul-12 21:13N 29°36' W 090°40'0 0.0
2017-Jul-12 20:52N 29°36' W 090°40'0 0.0
2017-Jul-12 20:25N 29°36' W 090°40'0 0.0
2017-Jul-12 19:49N 29°36' W 090°40'0 0.0
2017-Jul-12 19:19N 29°36' W 090°40'0 0.0
2017-Jul-12 18:49N 29°36' W 090°40'0 0.0
2017-Jul-12 18:25N 29°36' W 090°40'0 0.0
2017-Jul-12 17:07N 29°36' W 090°40'0 0.0
2017-Jul-12 16:55N 29°36' W 090°40'0 0.0
2017-Jul-12 16:25N 29°36' W 090°40'0 0.0
2017-Jul-12 15:43N 29°36' W 090°40'0 0.0
2017-Jul-12 15:28N 29°36' W 090°40'0 0.0
2017-Jul-12 14:55N 29°36' W 090°40'0 0.0
2017-Jul-12 13:55N 29°36' W 090°40'0 0.0
2017-Jul-12 12:45N 29°36' W 090°40'0 0.0
2017-Jul-12 12:03N 29°36' W 090°40'0 0.0
2017-Jul-12 11:57N 29°36' W 090°40'0 0.0
2017-Jul-12 11:27N 29°36' W 090°40'0 0.0
2017-Jul-12 10:57N 29°36' W 090°40'0 0.0
2017-Jul-12 10:21N 29°36' W 090°40'0 0.0
2017-Jul-12 09:57N 29°36' W 090°40'0 0.0
2017-Jul-12 08:57N 29°36' W 090°40'0 0.0
2017-Jul-12 08:21N 29°36' W 090°40'0 0.0
2017-Jul-12 07:51N 29°36' W 090°40'0 0.0
2017-Jul-12 07:09N 29°36' W 090°40'0 0.0
2017-Jul-12 06:57N 29°36' W 090°40'0 0.0
2017-Jul-12 06:21N 29°36' W 090°40'0 0.0
2017-Jul-12 05:51N 29°36' W 090°40'0 0.0
2017-Jul-12 05:27N 29°36' W 090°40'0 0.0
2017-Jul-12 04:57N 29°36' W 090°40'0 0.0
2017-Jul-12 04:27N 29°36' W 090°40'0 0.0
2017-Jul-12 03:38N 29°36' W 090°40'0 0.0
2017-Jul-12 03:08N 29°36' W 090°40'0 0.0
2017-Jul-12 02:56N 29°36' W 090°40'0 0.0
2017-Jul-12 02:20N 29°36' W 090°40'0 0.0
2017-Jul-12 01:56N 29°36' W 090°40'0 0.0
2017-Jul-12 01:26N 29°36' W 090°40'0 0.0
2017-Jul-12 00:56N 29°36' W 090°40'0 0.0
2017-Jul-12 00:26N 29°36' W 090°40'0 0.0
2017-Jul-11 23:56N 29°36' W 090°40'0 0.0
2017-Jul-11 23:20N 29°36' W 090°40'0 0.0
2017-Jul-11 22:38N 29°36' W 090°40'0 0.0
2017-Jul-11 22:26N 29°36' W 090°40'0 0.0
2017-Jul-11 21:56N 29°36' W 090°40'0 0.0
2017-Jul-11 21:08N 29°36' W 090°40'0 0.0
2017-Jul-11 20:44N 29°36' W 090°40'0 0.0
2017-Jul-11 17:14N 29°36' W 090°40'0 0.0
2017-Jul-11 16:56N 29°36' W 090°40'0 0.0
2017-Jul-11 16:29N 29°36' W 090°40'0 0.0
2017-Jul-11 15:56N 29°36' W 090°40'0 0.0
2017-Jul-11 15:26N 29°36' W 090°40'0 0.0
2017-Jul-11 14:59N 29°36' W 090°40'0 0.0
2017-Jul-11 14:29N 29°36' W 090°40'0 0.0
2017-Jul-11 13:59N 29°36' W 090°40'0 0.0
2017-Jul-11 13:14N 29°36' W 090°40'0 0.0
2017-Jul-11 12:56N 29°36' W 090°40'0 0.0
2017-Jul-11 12:20N 29°36' W 090°40'0 0.0
2017-Jul-11 11:08N 29°36' W 090°40'0 0.0
2017-Jul-11 10:56N 29°36' W 090°40'0 0.0
2017-Jul-11 10:20N 29°36' W 090°40'0 0.0
2017-Jul-11 09:56N 29°36' W 090°40'0 0.0
2017-Jul-11 09:26N 29°36' W 090°40'0 0.0
2017-Jul-11 08:44N 29°36' W 090°40'0 0.0
2017-Jul-11 08:20N 29°36' W 090°40'0 0.0
2017-Jul-11 07:56N 29°36' W 090°40'0 0.0
2017-Jul-11 07:26N 29°36' W 090°40'0 0.0
2017-Jul-11 06:50N 29°36' W 090°40'0 0.0
2017-Jul-11 06:20N 29°36' W 090°40'0 0.0
2017-Jul-11 05:56N 29°36' W 090°40'0 0.0
2017-Jul-11 05:26N 29°36' W 090°40'0 0.0
2017-Jul-11 04:56N 29°36' W 090°40'0 0.0
2017-Jul-11 04:26N 29°36' W 090°40'0 0.0
2017-Jul-11 03:56N 29°36' W 090°40'0 0.0
2017-Jul-11 03:26N 29°36' W 090°40'0 0.0
2017-Jul-11 02:50N 29°36' W 090°40'0 0.0
2017-Jul-11 02:02N 29°36' W 090°40'0 0.1
2017-Jul-11 01:56N 29°36' W 090°40'0 0.0
2017-Jul-11 01:26N 29°36' W 090°40'0 0.0
2017-Jul-11 00:56N 29°36' W 090°40'0 0.0
2017-Jul-11 00:26N 29°36' W 090°40'0 0.0
2017-Jul-10 23:56N 29°36' W 090°40'0 0.0
2017-Jul-10 23:26N 29°36' W 090°40'0 0.0
2017-Jul-10 22:56N 29°36' W 090°40'0 0.0
2017-Jul-10 22:26N 29°36' W 090°40'0 0.0
2017-Jul-10 21:38N 29°36' W 090°40'0 0.0
2017-Jul-10 21:26N 29°36' W 090°40'0 0.0
2017-Jul-10 20:50N 29°36' W 090°40'0 0.0
2017-Jul-10 20:26N 29°36' W 090°40'0 0.0
2017-Jul-10 19:50N 29°36' W 090°40'0 0.0
2017-Jul-10 19:25N 29°36' W 090°40'0 0.0
2017-Jul-10 18:55N 29°36' W 090°40'0 0.0
2017-Jul-10 18:25N 29°36' W 090°40'0 0.0
2017-Jul-10 17:55N 29°36' W 090°40'0 0.0
2017-Jul-10 17:25N 29°36' W 090°40'0 0.0
2017-Jul-10 16:55N 29°36' W 090°40'0 0.0
2017-Jul-10 16:25N 29°36' W 090°40'0 0.0
2017-Jul-10 15:49N 29°36' W 090°40'0 0.0
2017-Jul-10 15:25N 29°36' W 090°40'0 0.0
2017-Jul-10 14:55N 29°36' W 090°40'0 0.0
2017-Jul-10 14:25N 29°36' W 090°40'0 0.0
2017-Jul-10 13:49N 29°36' W 090°40'0 0.0
2017-Jul-10 13:19N 29°36' W 090°40'0 0.0
2017-Jul-10 12:49N 29°36' W 090°40'0 0.0
2017-Jul-10 11:19N 29°36' W 090°40'0 0.0
2017-Jul-10 10:37N 29°36' W 090°40'0 0.0
2017-Jul-10 10:25N 29°36' W 090°40'0 0.0
2017-Jul-10 09:01N 29°36' W 090°40'0 0.1
2017-Jul-10 08:55N 29°36' W 090°40'0 0.0
2017-Jul-10 08:25N 29°36' W 090°40'0 0.0
2017-Jul-10 07:43N 29°36' W 090°40'0 0.0
2017-Jul-10 07:13N 29°36' W 090°40'0 0.0
2017-Jul-10 05:19N 29°36' W 090°40'0 0.0
2017-Jul-10 04:07N 29°36' W 090°40'0 0.0
2017-Jul-10 03:43N 29°36' W 090°40'0 0.0
2017-Jul-10 02:49N 29°36' W 090°40'0 0.0
2017-Jul-10 02:01N 29°36' W 090°40'0 0.0
2017-Jul-10 00:43N 29°36' W 090°40'0 0.0
2017-Jul-10 00:13N 29°36' W 090°40'0 0.0
2017-Jul-09 23:01N 29°36' W 090°40'0 0.1
2017-Jul-09 22:55N 29°36' W 090°40'0 0.0
2017-Jul-09 22:19N 29°36' W 090°40'0 0.0
2017-Jul-09 21:55N 29°36' W 090°40'0 0.0
2017-Jul-09 21:25N 29°36' W 090°40'0 0.0
2017-Jul-09 20:43N 29°36' W 090°40'0 0.0
2017-Jul-09 20:19N 29°36' W 090°40'0 0.0
2017-Jul-09 19:55N 29°36' W 090°40'  

Dump ship's entire track history